sensor_id;sensor_type;location;lat;lon;timestamp;P1;durP1;ratioP1;P2;durP2;ratioP2
78290;SDS011;67543;45.494;9.100;2023-06-14T07:42:15;12.35;;;7.07;;
78290;SDS011;67543;45.494;9.100;2023-06-14T07:44:45;10.93;;;6.10;;
78290;SDS011;67543;45.494;9.100;2023-06-14T07:47:22;8.48;;;5.50;;
78290;SDS011;67543;45.494;9.100;2023-06-14T07:49:49;12.30;;;6.53;;
78290;SDS011;67543;45.494;9.100;2023-06-14T07:52:15;9.02;;;5.47;;
78290;SDS011;67543;45.494;9.100;2023-06-14T07:54:41;8.15;;;5.43;;
78290;SDS011;67543;45.494;9.100;2023-06-14T07:57:06;6.05;;;4.60;;
78290;SDS011;67543;45.494;9.100;2023-06-14T07:59:31;7.65;;;4.85;;
78290;SDS011;67543;45.494;9.100;2023-06-14T08:01:59;6.72;;;4.22;;
78290;SDS011;67543;45.494;9.100;2023-06-14T08:04:31;6.70;;;4.95;;
78290;SDS011;67543;45.494;9.100;2023-06-14T08:07:05;8.35;;;5.30;;
78290;SDS011;67543;45.494;9.100;2023-06-14T08:09:35;9.18;;;5.53;;
78290;SDS011;67543;45.494;9.100;2023-06-14T08:12:05;7.15;;;5.07;;
78290;SDS011;67543;45.494;9.100;2023-06-14T08:14:38;7.95;;;5.20;;
78290;SDS011;67543;45.494;9.100;2023-06-14T08:17:04;6.05;;;4.75;;
78290;SDS011;67543;45.494;9.100;2023-06-14T08:19:35;7.10;;;5.15;;
78290;SDS011;67543;45.494;9.100;2023-06-14T08:22:06;13.05;;;5.05;;
78290;SDS011;67543;45.494;9.100;2023-06-14T08:24:34;7.43;;;4.55;;
78290;SDS011;67543;45.494;9.100;2023-06-14T08:27:04;6.57;;;4.70;;
78290;SDS011;67543;45.494;9.100;2023-06-14T08:32:03;8.25;;;4.90;;
78290;SDS011;67543;45.494;9.100;2023-06-14T08:34:34;5.53;;;3.85;;
78290;SDS011;67543;45.494;9.100;2023-06-14T08:37:05;8.43;;;5.07;;
78290;SDS011;67543;45.494;9.100;2023-06-14T08:39:33;5.90;;;3.63;;
78290;SDS011;67543;45.494;9.100;2023-06-14T08:42:02;5.90;;;4.47;;
78290;SDS011;67543;45.494;9.100;2023-06-14T08:44:34;6.90;;;3.92;;
78290;SDS011;67543;45.494;9.100;2023-06-14T08:47:02;8.43;;;4.15;;
78290;SDS011;67543;45.494;9.100;2023-06-14T08:49:33;7.13;;;4.72;;
78290;SDS011;67543;45.494;9.100;2023-06-14T08:52:04;8.50;;;5.07;;
78290;SDS011;67543;45.494;9.100;2023-06-14T08:54:33;9.52;;;5.00;;
78290;SDS011;67543;45.494;9.100;2023-06-14T08:57:01;6.65;;;5.25;;
78290;SDS011;67543;45.494;9.100;2023-06-14T08:59:29;8.00;;;5.55;;
78290;SDS011;67543;45.494;9.100;2023-06-14T09:02:09;9.13;;;6.22;;
78290;SDS011;67543;45.494;9.100;2023-06-14T09:04:38;9.27;;;6.43;;
78290;SDS011;67543;45.494;9.100;2023-06-14T09:07:12;9.80;;;6.18;;
78290;SDS011;67543;45.494;9.100;2023-06-14T09:12:11;9.98;;;5.47;;
78290;SDS011;67543;45.494;9.100;2023-06-14T09:14:46;7.13;;;5.70;;
78290;SDS011;67543;45.494;9.100;2023-06-14T09:17:19;9.68;;;6.55;;
78290;SDS011;67543;45.494;9.100;2023-06-14T09:19:48;9.38;;;6.28;;
78290;SDS011;67543;45.494;9.100;2023-06-14T09:22:18;9.20;;;6.03;;
78290;SDS011;67543;45.494;9.100;2023-06-14T09:24:49;10.50;;;6.88;;
78290;SDS011;67543;45.494;9.100;2023-06-14T09:27:17;9.52;;;6.22;;
78290;SDS011;67543;45.494;9.100;2023-06-14T09:29:46;13.57;;;5.63;;
78290;SDS011;67543;45.494;9.100;2023-06-14T09:32:13;12.65;;;6.60;;
78290;SDS011;67543;45.494;9.100;2023-06-14T09:34:42;9.02;;;5.72;;
78290;SDS011;67543;45.494;9.100;2023-06-14T09:37:13;9.48;;;6.03;;
78290;SDS011;67543;45.494;9.100;2023-06-14T09:39:54;8.32;;;5.30;;
78290;SDS011;67543;45.494;9.100;2023-06-14T09:42:25;7.55;;;5.80;;
78290;SDS011;67543;45.494;9.100;2023-06-14T09:44:51;9.45;;;5.32;;
78290;SDS011;67543;45.494;9.100;2023-06-14T09:47:25;12.07;;;6.93;;
78290;SDS011;67543;45.494;9.100;2023-06-14T09:49:53;8.93;;;6.13;;
78290;SDS011;67543;45.494;9.100;2023-06-14T09:52:20;8.75;;;5.72;;
78290;SDS011;67543;45.494;9.100;2023-06-14T09:54:47;9.38;;;5.75;;
78290;SDS011;67543;45.494;9.100;2023-06-14T09:57:16;8.35;;;5.85;;
78290;SDS011;67543;45.494;9.100;2023-06-14T09:59:45;9.40;;;6.28;;
78290;SDS011;67543;45.494;9.100;2023-06-14T10:05:03;8.48;;;5.85;;
78290;SDS011;67543;45.494;9.100;2023-06-14T10:10:18;7.45;;;5.03;;
78290;SDS011;67543;45.494;9.100;2023-06-14T10:12:44;8.25;;;5.25;;
78290;SDS011;67543;45.494;9.100;2023-06-14T10:15:15;8.82;;;5.53;;
78290;SDS011;67543;45.494;9.100;2023-06-14T10:17:46;8.10;;;5.93;;
78290;SDS011;67543;45.494;9.100;2023-06-14T10:20:21;8.90;;;5.00;;
78290;SDS011;67543;45.494;9.100;2023-06-14T10:22:59;7.10;;;4.72;;
78290;SDS011;67543;45.494;9.100;2023-06-14T10:25:48;7.45;;;5.40;;
78290;SDS011;67543;45.494;9.100;2023-06-14T10:28:19;6.63;;;4.32;;
78290;SDS011;67543;45.494;9.100;2023-06-14T10:31:03;9.02;;;4.53;;
78290;SDS011;67543;45.494;9.100;2023-06-14T10:33:30;7.80;;;4.65;;
78290;SDS011;67543;45.494;9.100;2023-06-14T10:36:09;6.85;;;5.10;;
78290;SDS011;67543;45.494;9.100;2023-06-14T10:38:36;8.18;;;5.40;;
78290;SDS011;67543;45.494;9.100;2023-06-14T10:41:02;11.15;;;5.60;;
78290;SDS011;67543;45.494;9.100;2023-06-14T10:43:28;12.35;;;6.03;;
78290;SDS011;67543;45.494;9.100;2023-06-14T10:48:48;8.65;;;5.63;;
78290;SDS011;67543;45.494;9.100;2023-06-14T10:51:17;7.70;;;5.38;;
78290;SDS011;67543;45.494;9.100;2023-06-14T10:53:49;10.90;;;5.80;;
78290;SDS011;67543;45.494;9.100;2023-06-14T10:56:28;8.55;;;5.85;;
78290;SDS011;67543;45.494;9.100;2023-06-14T10:58:55;8.48;;;5.35;;
78290;SDS011;67543;45.494;9.100;2023-06-14T11:04:46;7.55;;;5.78;;
78290;SDS011;67543;45.494;9.100;2023-06-14T11:10:05;9.40;;;6.80;;
78290;SDS011;67543;45.494;9.100;2023-06-14T11:12:35;8.13;;;5.88;;
78290;SDS011;67543;45.494;9.100;2023-06-14T11:15:01;8.10;;;6.05;;
78290;SDS011;67543;45.494;9.100;2023-06-14T11:17:28;8.07;;;5.57;;
78290;SDS011;67543;45.494;9.100;2023-06-14T11:20:11;6.75;;;4.95;;
78290;SDS011;67543;45.494;9.100;2023-06-14T11:22:44;8.98;;;4.88;;
78290;SDS011;67543;45.494;9.100;2023-06-14T11:25:10;9.23;;;6.35;;
78290;SDS011;67543;45.494;9.100;2023-06-14T11:27:36;9.77;;;6.93;;
78290;SDS011;67543;45.494;9.100;2023-06-14T11:30:02;10.95;;;7.70;;
78290;SDS011;67543;45.494;9.100;2023-06-14T11:32:27;9.38;;;6.65;;
78290;SDS011;67543;45.494;9.100;2023-06-14T11:34:53;11.00;;;5.55;;
78290;SDS011;67543;45.494;9.100;2023-06-14T11:37:18;5.70;;;4.53;;
78290;SDS011;67543;45.494;9.100;2023-06-14T11:39:44;7.60;;;5.45;;
78290;SDS011;67543;45.494;9.100;2023-06-14T11:42:13;7.40;;;5.13;;
78290;SDS011;67543;45.494;9.100;2023-06-14T11:44:40;7.22;;;4.63;;
78290;SDS011;67543;45.494;9.100;2023-06-14T11:47:05;9.93;;;5.97;;
78290;SDS011;67543;45.494;9.100;2023-06-14T11:49:34;7.70;;;6.40;;
78290;SDS011;67543;45.494;9.100;2023-06-14T11:52:00;13.32;;;7.88;;
78290;SDS011;67543;45.494;9.100;2023-06-14T11:54:26;7.72;;;4.88;;
78290;SDS011;67543;45.494;9.100;2023-06-14T11:56:51;10.40;;;7.97;;
78290;SDS011;67543;45.494;9.100;2023-06-14T11:59:17;11.57;;;7.10;;
78290;SDS011;67543;45.494;9.100;2023-06-14T12:01:42;8.63;;;5.53;;
78290;SDS011;67543;45.494;9.100;2023-06-14T12:04:08;12.40;;;7.68;;
78290;SDS011;67543;45.494;9.100;2023-06-14T12:06:33;8.43;;;6.20;;
78290;SDS011;67543;45.494;9.100;2023-06-14T12:09:03;6.95;;;4.57;;
78290;SDS011;67543;45.494;9.100;2023-06-14T12:11:32;12.73;;;8.88;;
78290;SDS011;67543;45.494;9.100;2023-06-14T12:13:58;11.88;;;8.18;;
78290;SDS011;67543;45.494;9.100;2023-06-14T12:16:29;6.65;;;5.50;;
78290;SDS011;67543;45.494;9.100;2023-06-14T12:18:55;8.68;;;6.40;;
78290;SDS011;67543;45.494;9.100;2023-06-14T12:21:22;7.70;;;5.25;;
78290;SDS011;67543;45.494;9.100;2023-06-14T12:23:49;8.00;;;6.78;;
78290;SDS011;67543;45.494;9.100;2023-06-14T12:26:15;8.32;;;5.40;;
78290;SDS011;67543;45.494;9.100;2023-06-14T12:28:41;7.78;;;5.50;;
78290;SDS011;67543;45.494;9.100;2023-06-14T12:31:08;10.95;;;7.72;;
78290;SDS011;67543;45.494;9.100;2023-06-14T12:33:33;6.47;;;5.30;;
78290;SDS011;67543;45.494;9.100;2023-06-14T12:35:59;9.48;;;6.57;;
78290;SDS011;67543;45.494;9.100;2023-06-14T12:38:24;9.57;;;6.28;;
78290;SDS011;67543;45.494;9.100;2023-06-14T12:40:49;11.15;;;5.63;;
78290;SDS011;67543;45.494;9.100;2023-06-14T12:43:15;7.70;;;5.82;;
78290;SDS011;67543;45.494;9.100;2023-06-14T12:45:40;11.02;;;7.55;;
78290;SDS011;67543;45.494;9.100;2023-06-14T12:48:05;10.77;;;7.28;;
78290;SDS011;67543;45.494;9.100;2023-06-14T12:50:31;7.93;;;5.70;;
78290;SDS011;67543;45.494;9.100;2023-06-14T12:52:56;8.77;;;6.55;;
78290;SDS011;67543;45.494;9.100;2023-06-14T12:55:21;10.10;;;5.78;;
78290;SDS011;67543;45.494;9.100;2023-06-14T12:57:47;9.30;;;5.72;;
78290;SDS011;67543;45.494;9.100;2023-06-14T13:00:14;7.85;;;5.15;;
78290;SDS011;67543;45.494;9.100;2023-06-14T13:02:40;8.48;;;5.80;;
78290;SDS011;67543;45.494;9.100;2023-06-14T13:05:06;4.78;;;4.03;;
78290;SDS011;67543;45.494;9.100;2023-06-14T13:07:32;6.22;;;4.78;;
78290;SDS011;67543;45.494;9.100;2023-06-14T13:09:57;7.38;;;5.95;;
78290;SDS011;67543;45.494;9.100;2023-06-14T13:12:22;8.30;;;5.55;;
78290;SDS011;67543;45.494;9.100;2023-06-14T13:14:48;9.18;;;5.30;;
78290;SDS011;67543;45.494;9.100;2023-06-14T13:17:14;8.10;;;6.15;;
78290;SDS011;67543;45.494;9.100;2023-06-14T13:19:39;7.47;;;4.85;;
78290;SDS011;67543;45.494;9.100;2023-06-14T13:22:07;7.82;;;4.75;;
78290;SDS011;67543;45.494;9.100;2023-06-14T13:24:33;6.82;;;4.65;;
78290;SDS011;67543;45.494;9.100;2023-06-14T13:26:58;6.97;;;4.18;;
78290;SDS011;67543;45.494;9.100;2023-06-14T13:29:24;6.47;;;4.07;;
78290;SDS011;67543;45.494;9.100;2023-06-14T13:31:52;4.55;;;3.83;;
78290;SDS011;67543;45.494;9.100;2023-06-14T13:34:18;5.35;;;3.60;;
78290;SDS011;67543;45.494;9.100;2023-06-14T13:36:43;4.97;;;3.83;;
78290;SDS011;67543;45.494;9.100;2023-06-14T13:39:09;4.32;;;3.60;;
78290;SDS011;67543;45.494;9.100;2023-06-14T13:41:35;6.38;;;3.15;;
78290;SDS011;67543;45.494;9.100;2023-06-14T13:44:04;9.02;;;4.10;;
78290;SDS011;67543;45.494;9.100;2023-06-14T13:46:29;7.57;;;5.28;;
78290;SDS011;67543;45.494;9.100;2023-06-14T13:49:01;5.63;;;4.65;;
78290;SDS011;67543;45.494;9.100;2023-06-14T13:51:30;4.35;;;3.40;;
78290;SDS011;67543;45.494;9.100;2023-06-14T13:54:00;5.07;;;3.40;;
78290;SDS011;67543;45.494;9.100;2023-06-14T13:56:28;5.63;;;3.25;;
78290;SDS011;67543;45.494;9.100;2023-06-14T13:58:57;4.18;;;3.45;;
78290;SDS011;67543;45.494;9.100;2023-06-14T14:01:22;3.67;;;3.30;;
78290;SDS011;67543;45.494;9.100;2023-06-14T14:03:48;6.95;;;4.10;;
78290;SDS011;67543;45.494;9.100;2023-06-14T14:06:14;4.63;;;3.67;;
78290;SDS011;67543;45.494;9.100;2023-06-14T14:08:40;3.95;;;3.03;;
78290;SDS011;67543;45.494;9.100;2023-06-14T14:11:06;4.18;;;3.50;;
78290;SDS011;67543;45.494;9.100;2023-06-14T14:13:32;4.45;;;3.58;;
78290;SDS011;67543;45.494;9.100;2023-06-14T14:15:58;4.40;;;3.80;;
78290;SDS011;67543;45.494;9.100;2023-06-14T14:18:26;4.68;;;3.55;;
78290;SDS011;67543;45.494;9.100;2023-06-14T14:20:52;9.55;;;4.18;;
78290;SDS011;67543;45.494;9.100;2023-06-14T14:23:23;4.95;;;3.40;;
78290;SDS011;67543;45.494;9.100;2023-06-14T14:25:48;4.10;;;3.47;;
78290;SDS011;67543;45.494;9.100;2023-06-14T14:28:14;6.18;;;3.50;;
78290;SDS011;67543;45.494;9.100;2023-06-14T14:30:44;8.32;;;4.60;;
78290;SDS011;67543;45.494;9.100;2023-06-14T14:33:10;5.25;;;3.38;;
78290;SDS011;67543;45.494;9.100;2023-06-14T14:35:40;4.03;;;3.15;;
78290;SDS011;67543;45.494;9.100;2023-06-14T14:38:07;6.43;;;4.63;;
78290;SDS011;67543;45.494;9.100;2023-06-14T14:40:32;5.55;;;3.85;;
78290;SDS011;67543;45.494;9.100;2023-06-14T14:42:58;4.20;;;3.58;;
78290;SDS011;67543;45.494;9.100;2023-06-14T14:45:23;6.00;;;3.40;;
78290;SDS011;67543;45.494;9.100;2023-06-14T14:47:48;4.13;;;3.35;;
78290;SDS011;67543;45.494;9.100;2023-06-14T14:50:14;4.10;;;3.63;;
78290;SDS011;67543;45.494;9.100;2023-06-14T14:52:41;6.80;;;4.15;;
78290;SDS011;67543;45.494;9.100;2023-06-14T14:55:06;4.05;;;3.42;;
78290;SDS011;67543;45.494;9.100;2023-06-14T14:57:32;4.35;;;3.92;;
78290;SDS011;67543;45.494;9.100;2023-06-14T14:59:58;5.05;;;3.63;;
78290;SDS011;67543;45.494;9.100;2023-06-14T15:02:23;5.80;;;3.60;;
78290;SDS011;67543;45.494;9.100;2023-06-14T15:04:49;7.97;;;4.00;;
78290;SDS011;67543;45.494;9.100;2023-06-14T15:07:17;6.50;;;3.78;;
78290;SDS011;67543;45.494;9.100;2023-06-14T15:09:42;6.05;;;4.45;;
78290;SDS011;67543;45.494;9.100;2023-06-14T15:12:08;5.05;;;3.92;;
78290;SDS011;67543;45.494;9.100;2023-06-14T15:14:35;6.45;;;3.72;;
78290;SDS011;67543;45.494;9.100;2023-06-14T15:17:01;5.38;;;4.05;;
78290;SDS011;67543;45.494;9.100;2023-06-14T15:19:28;4.00;;;3.42;;
78290;SDS011;67543;45.494;9.100;2023-06-14T15:21:53;5.95;;;3.95;;
78290;SDS011;67543;45.494;9.100;2023-06-14T15:24:18;6.85;;;3.78;;
78290;SDS011;67543;45.494;9.100;2023-06-14T15:26:44;8.40;;;4.10;;
78290;SDS011;67543;45.494;9.100;2023-06-14T15:29:10;6.70;;;4.82;;
78290;SDS011;67543;45.494;9.100;2023-06-14T15:31:35;5.47;;;3.72;;
78290;SDS011;67543;45.494;9.100;2023-06-14T15:34:01;6.30;;;4.32;;
78290;SDS011;67543;45.494;9.100;2023-06-14T15:36:29;5.63;;;3.78;;
78290;SDS011;67543;45.494;9.100;2023-06-14T15:38:54;5.15;;;3.83;;
78290;SDS011;67543;45.494;9.100;2023-06-14T15:41:20;4.50;;;3.72;;
78290;SDS011;67543;45.494;9.100;2023-06-14T15:43:45;6.63;;;4.78;;
78290;SDS011;67543;45.494;9.100;2023-06-14T15:46:10;4.68;;;4.18;;
78290;SDS011;67543;45.494;9.100;2023-06-14T15:48:36;7.00;;;4.22;;
78290;SDS011;67543;45.494;9.100;2023-06-14T15:51:01;7.35;;;4.30;;
78290;SDS011;67543;45.494;9.100;2023-06-14T15:53:26;5.28;;;3.88;;
78290;SDS011;67543;45.494;9.100;2023-06-14T15:55:52;5.78;;;5.18;;
78290;SDS011;67543;45.494;9.100;2023-06-14T15:58:17;8.57;;;4.53;;
78290;SDS011;67543;45.494;9.100;2023-06-14T16:00:43;5.45;;;4.00;;
78290;SDS011;67543;45.494;9.100;2023-06-14T16:03:08;5.55;;;4.28;;
78290;SDS011;67543;45.494;9.100;2023-06-14T16:05:34;6.40;;;4.35;;
78290;SDS011;67543;45.494;9.100;2023-06-14T16:07:59;8.23;;;3.80;;
78290;SDS011;67543;45.494;9.100;2023-06-14T16:10:26;4.95;;;3.97;;
78290;SDS011;67543;45.494;9.100;2023-06-14T16:12:52;5.07;;;3.80;;
78290;SDS011;67543;45.494;9.100;2023-06-14T16:15:17;6.43;;;3.83;;
78290;SDS011;67543;45.494;9.100;2023-06-14T16:17:43;5.38;;;4.35;;
78290;SDS011;67543;45.494;9.100;2023-06-14T16:20:08;4.93;;;3.97;;
78290;SDS011;67543;45.494;9.100;2023-06-14T16:22:34;4.95;;;4.35;;
78290;SDS011;67543;45.494;9.100;2023-06-14T16:24:59;5.35;;;3.53;;
78290;SDS011;67543;45.494;9.100;2023-06-14T16:27:25;4.82;;;4.05;;
78290;SDS011;67543;45.494;9.100;2023-06-14T16:29:50;6.22;;;4.20;;
78290;SDS011;67543;45.494;9.100;2023-06-14T16:32:16;6.03;;;5.00;;
78290;SDS011;67543;45.494;9.100;2023-06-14T16:34:41;4.68;;;3.88;;
78290;SDS011;67543;45.494;9.100;2023-06-14T16:37:07;5.25;;;3.97;;
78290;SDS011;67543;45.494;9.100;2023-06-14T16:39:33;6.40;;;4.57;;
78290;SDS011;67543;45.494;9.100;2023-06-14T16:41:58;5.10;;;4.55;;
78290;SDS011;67543;45.494;9.100;2023-06-14T16:44:24;5.93;;;4.22;;
78290;SDS011;67543;45.494;9.100;2023-06-14T16:46:50;5.80;;;5.20;;
78290;SDS011;67543;45.494;9.100;2023-06-14T16:49:15;6.43;;;5.32;;
78290;SDS011;67543;45.494;9.100;2023-06-14T16:51:40;5.43;;;3.95;;
78290;SDS011;67543;45.494;9.100;2023-06-14T16:54:06;6.75;;;4.18;;
78290;SDS011;67543;45.494;9.100;2023-06-14T16:56:31;7.20;;;4.45;;
78290;SDS011;67543;45.494;9.100;2023-06-14T16:58:57;5.63;;;4.43;;
78290;SDS011;67543;45.494;9.100;2023-06-14T17:01:23;8.65;;;5.85;;
78290;SDS011;67543;45.494;9.100;2023-06-14T17:03:49;5.13;;;3.63;;
78290;SDS011;67543;45.494;9.100;2023-06-14T17:06:18;6.65;;;3.90;;
78290;SDS011;67543;45.494;9.100;2023-06-14T17:08:46;4.55;;;3.75;;
78290;SDS011;67543;45.494;9.100;2023-06-14T17:11:11;7.22;;;5.05;;
78290;SDS011;67543;45.494;9.100;2023-06-14T17:13:37;4.65;;;3.75;;
78290;SDS011;67543;45.494;9.100;2023-06-14T17:16:02;7.32;;;6.47;;
78290;SDS011;67543;45.494;9.100;2023-06-14T17:18:30;6.38;;;5.25;;
78290;SDS011;67543;45.494;9.100;2023-06-14T17:20:55;7.82;;;5.38;;
78290;SDS011;67543;45.494;9.100;2023-06-14T17:23:20;6.15;;;5.35;;
78290;SDS011;67543;45.494;9.100;2023-06-14T17:25:46;10.65;;;6.88;;
78290;SDS011;67543;45.494;9.100;2023-06-14T17:28:11;9.00;;;7.05;;
78290;SDS011;67543;45.494;9.100;2023-06-14T17:30:36;7.95;;;5.72;;
78290;SDS011;67543;45.494;9.100;2023-06-14T17:33:02;7.68;;;5.78;;
78290;SDS011;67543;45.494;9.100;2023-06-14T17:35:29;11.40;;;5.25;;
78290;SDS011;67543;45.494;9.100;2023-06-14T17:37:54;7.72;;;5.78;;
78290;SDS011;67543;45.494;9.100;2023-06-14T17:40:20;7.22;;;5.22;;
78290;SDS011;67543;45.494;9.100;2023-06-14T17:42:48;7.15;;;5.90;;
78290;SDS011;67543;45.494;9.100;2023-06-14T17:45:13;8.35;;;5.43;;
78290;SDS011;67543;45.494;9.100;2023-06-14T17:47:39;8.50;;;4.97;;
78290;SDS011;67543;45.494;9.100;2023-06-14T17:50:04;10.30;;;5.60;;
78290;SDS011;67543;45.494;9.100;2023-06-14T17:52:30;6.82;;;4.63;;
78290;SDS011;67543;45.494;9.100;2023-06-14T17:54:56;6.80;;;4.00;;
78290;SDS011;67543;45.494;9.100;2023-06-14T17:57:21;8.68;;;4.28;;
78290;SDS011;67543;45.494;9.100;2023-06-14T17:59:46;5.82;;;4.80;;
78290;SDS011;67543;45.494;9.100;2023-06-14T18:02:13;7.72;;;3.90;;
78290;SDS011;67543;45.494;9.100;2023-06-14T18:04:38;7.28;;;4.03;;
78290;SDS011;67543;45.494;9.100;2023-06-14T18:07:04;7.63;;;4.25;;
78290;SDS011;67543;45.494;9.100;2023-06-14T18:09:29;5.20;;;4.47;;
78290;SDS011;67543;45.494;9.100;2023-06-14T18:11:55;5.13;;;4.15;;
78290;SDS011;67543;45.494;9.100;2023-06-14T18:14:21;5.20;;;3.45;;
78290;SDS011;67543;45.494;9.100;2023-06-14T18:16:46;6.05;;;3.97;;
78290;SDS011;67543;45.494;9.100;2023-06-14T18:19:12;7.43;;;5.70;;
78290;SDS011;67543;45.494;9.100;2023-06-14T18:21:42;6.18;;;4.63;;
78290;SDS011;67543;45.494;9.100;2023-06-14T18:24:07;5.65;;;4.57;;
78290;SDS011;67543;45.494;9.100;2023-06-14T18:26:34;6.95;;;4.45;;
78290;SDS011;67543;45.494;9.100;2023-06-14T18:29:00;5.65;;;4.18;;
78290;SDS011;67543;45.494;9.100;2023-06-14T18:31:26;5.63;;;4.35;;
78290;SDS011;67543;45.494;9.100;2023-06-14T18:33:51;7.07;;;4.30;;
78290;SDS011;67543;45.494;9.100;2023-06-14T18:36:17;7.53;;;4.35;;
78290;SDS011;67543;45.494;9.100;2023-06-14T18:38:44;6.18;;;3.65;;
78290;SDS011;67543;45.494;9.100;2023-06-14T18:41:11;4.53;;;3.67;;
78290;SDS011;67543;45.494;9.100;2023-06-14T18:43:37;4.85;;;3.65;;
78290;SDS011;67543;45.494;9.100;2023-06-14T18:46:02;5.07;;;3.88;;
78290;SDS011;67543;45.494;9.100;2023-06-14T18:48:28;6.28;;;4.15;;
78290;SDS011;67543;45.494;9.100;2023-06-14T18:50:53;6.45;;;3.63;;
78290;SDS011;67543;45.494;9.100;2023-06-14T18:53:18;7.65;;;4.40;;
78290;SDS011;67543;45.494;9.100;2023-06-14T18:55:48;7.05;;;4.43;;
78290;SDS011;67543;45.494;9.100;2023-06-14T18:58:17;6.75;;;5.22;;
78290;SDS011;67543;45.494;9.100;2023-06-14T19:00:42;6.60;;;5.50;;
78290;SDS011;67543;45.494;9.100;2023-06-14T19:03:08;6.88;;;5.55;;
78290;SDS011;67543;45.494;9.100;2023-06-14T19:05:33;7.88;;;4.95;;
78290;SDS011;67543;45.494;9.100;2023-06-14T19:08:01;6.47;;;5.35;;
78290;SDS011;67543;45.494;9.100;2023-06-14T19:10:32;6.07;;;5.05;;
78290;SDS011;67543;45.494;9.100;2023-06-14T19:13:00;9.23;;;6.60;;
78290;SDS011;67543;45.494;9.100;2023-06-14T19:15:28;8.95;;;6.13;;
78290;SDS011;67543;45.494;9.100;2023-06-14T19:20:24;7.60;;;5.78;;
78290;SDS011;67543;45.494;9.100;2023-06-14T19:22:57;8.48;;;5.78;;
78290;SDS011;67543;45.494;9.100;2023-06-14T19:25:22;9.07;;;5.32;;
78290;SDS011;67543;45.494;9.100;2023-06-14T19:27:53;6.95;;;5.28;;
78290;SDS011;67543;45.494;9.100;2023-06-14T19:30:24;8.23;;;6.13;;
78290;SDS011;67543;45.494;9.100;2023-06-14T19:32:52;8.23;;;6.05;;
78290;SDS011;67543;45.494;9.100;2023-06-14T19:35:20;7.47;;;5.28;;
78290;SDS011;67543;45.494;9.100;2023-06-14T19:37:46;6.65;;;5.80;;
78290;SDS011;67543;45.494;9.100;2023-06-14T19:40:14;7.97;;;6.22;;
78290;SDS011;67543;45.494;9.100;2023-06-14T19:42:40;8.25;;;5.88;;
78290;SDS011;67543;45.494;9.100;2023-06-14T19:45:08;10.18;;;6.63;;
78290;SDS011;67543;45.494;9.100;2023-06-14T19:47:34;7.35;;;5.60;;
78290;SDS011;67543;45.494;9.100;2023-06-14T19:50:02;6.45;;;5.40;;
78290;SDS011;67543;45.494;9.100;2023-06-14T19:52:32;7.55;;;5.72;;
78290;SDS011;67543;45.494;9.100;2023-06-14T19:54:58;7.75;;;6.00;;
78290;SDS011;67543;45.494;9.100;2023-06-14T19:57:29;7.57;;;5.88;;
